Santaella, Spain
Current Conditions -  °F | °C
As of 8:00 PM on Wednesday 17 Dec 2014 (Local Time) from LEBA Reporting Station
Moderate Fog Moderate Fog  
Wind Chill: 45°   Ceiling: Unl
Heat Index: 45°   Visibility: 0.56mi
Dew Point: 45°   Wind: 1mph
Humidity: 100%   Direction: 270°W
Pressure: 30.36"   Gusts: NA
Location:  37.56°N, 4.84°W
Report Text: LEBA 171900Z 27001KT 0900 FG NSC 07/07 Q1028
Loading
Personal Weather Stations






























Interactive Weather Map New forecast layout! Learn more

10-Day Weather Forecast

Advertisements
Track Severe Weather on mobile